Time;durP1;ratioP1;P1;durP2;ratioP2;P2;SDS_P1;SDS_P2;PMS_P1;PMS_P2;Temp;Humidity;BMP_temperature;BMP_pressure;BME280_temperature;BME280_humidity;BME280_pressure;Samples;Min_cycle;Max_cycle;Signal;HPM_P1;HPM_P2
2022/01/27 00:01:46;;;;;;;4.82;3.70;;;0.40;99.90;;;;;;5016381;28;20194;-71
2022/01/27 00:06:39;;;;;;;6.63;4.40;;;0.40;99.90;;;;;;5015901;28;20621;-73
2022/01/27 00:09:14;;;;;;;12.48;6.10;;;0.40;99.90;;;;;;5015469;28;20187;-72
2022/01/27 00:11:43;;;;;;;16.02;6.45;;;0.50;99.90;;;;;;5016085;28;20167;-72
2022/01/27 00:14:11;;;;;;;9.48;4.10;;;0.50;99.90;;;;;;5015272;28;20284;-73
2022/01/27 00:16:41;;;;;;;7.20;5.38;;;0.50;99.90;;;;;;5015741;28;20191;-71
2022/01/27 00:19:08;;;;;;;8.13;4.35;;;0.50;99.90;;;;;;5015477;28;20592;-72
2022/01/27 00:21:34;;;;;;;7.78;7.03;;;0.50;99.90;;;;;;5015500;28;20250;-71
2022/01/27 00:24:02;;;;;;;15.93;8.37;;;0.50;99.90;;;;;;5015713;28;20203;-72
2022/01/27 00:26:27;;;;;;;6.43;4.30;;;0.60;99.90;;;;;;5015640;28;20249;-72
2022/01/27 00:28:54;;;;;;;13.20;6.03;;;0.60;99.90;;;;;;5015410;28;20266;-73
2022/01/27 00:31:21;;;;;;;11.18;5.45;;;0.60;99.90;;;;;;5015511;28;20209;-70
2022/01/27 00:33:47;;;;;;;12.77;5.13;;;0.60;99.90;;;;;;5015418;28;20195;-73
2022/01/27 00:36:13;;;;;;;11.68;4.50;;;0.60;99.90;;;;;;5015324;28;20197;-72
2022/01/27 00:38:39;;;;;;;5.77;5.20;;;0.60;99.90;;;;;;5014940;28;20583;-72
2022/01/27 00:41:05;;;;;;;7.47;5.43;;;0.70;99.90;;;;;;5015174;28;20163;-71
2022/01/27 00:43:30;;;;;;;9.67;6.93;;;0.70;99.90;;;;;;5014731;28;20436;-71
2022/01/27 00:45:56;;;;;;;7.60;6.90;;;0.70;99.90;;;;;;5015032;28;20174;-73
2022/01/27 00:48:22;;;;;;;11.10;7.72;;;0.70;99.90;;;;;;5029842;28;20178;-73
2022/01/27 00:50:53;;;;;;;18.20;8.53;;;0.80;99.90;;;;;;5030088;28;20194;-73
2022/01/27 00:53:44;;;;;;;9.13;5.93;;;0.70;99.90;;;;;;5014830;28;20203;-70
2022/01/27 00:56:24;;;;;;;6.78;5.10;;;0.70;99.90;;;;;;5013698;28;20171;-72
2022/01/27 01:01:19;;;;;;;12.55;7.72;;;0.60;99.90;;;;;;5014938;28;20162;-73
2022/01/27 01:03:48;;;;;;;13.57;3.92;;;0.60;99.90;;;;;;5014789;28;20171;-72
2022/01/27 01:35:10;;;;;;;14.98;5.82;;;0.60;99.90;;;;;;5014330;28;20166;-72
2022/01/27 01:37:39;;;;;;;7.10;4.60;;;0.60;99.90;;;;;;5014045;28;20159;-75
2022/01/27 01:40:07;;;;;;;7.57;5.15;;;0.60;99.90;;;;;;5014092;28;20260;-72
2022/01/27 01:42:32;;;;;;;10.48;5.60;;;0.60;99.90;;;;;;5014249;28;20182;-73
2022/01/27 01:45:07;;;;;;;10.80;7.93;;;0.60;99.90;;;;;;5014108;28;20253;-72
2022/01/27 01:47:33;;;;;;;12.40;6.00;;;0.60;99.90;;;;;;5013786;28;20570;-71
2022/01/27 01:49:59;;;;;;;8.23;5.10;;;0.60;99.90;;;;;;5013961;28;20218;-73
2022/01/27 01:52:25;;;;;;;5.60;5.10;;;0.60;99.90;;;;;;5013610;28;20189;-72
2022/01/27 01:54:53;;;;;;;7.00;6.50;;;0.60;99.90;;;;;;5013795;28;20229;-72
2022/01/27 01:57:19;;;;;;;13.27;9.60;;;0.60;99.90;;;;;;5014033;28;20202;-72
2022/01/27 01:59:44;;;;;;;9.20;6.47;;;0.60;99.90;;;;;;5013484;28;20254;-73
2022/01/27 02:02:12;;;;;;;8.97;7.33;;;0.60;99.90;;;;;;5013934;28;20167;-74
2022/01/27 02:04:39;;;;;;;10.48;5.03;;;0.60;99.90;;;;;;5014017;28;20163;-71
2022/01/27 02:07:11;;;;;;;9.43;5.05;;;0.50;99.90;;;;;;5013879;28;20641;-74
2022/01/27 02:18:01;;;;;;;6.72;3.92;;;0.60;99.90;;;;;;5013685;28;20217;-72
2022/01/27 02:20:29;;;;;;;12.48;7.40;;;0.60;99.90;;;;;;5013974;28;20182;-73
2022/01/27 02:22:55;;;;;;;9.82;5.78;;;0.70;99.90;;;;;;5028996;28;20178;-71
2022/01/27 02:25:20;;;;;;;6.17;4.67;;;0.60;99.90;;;;;;5013675;28;20181;-71
2022/01/27 02:27:46;;;;;;;18.60;7.00;;;0.60;99.90;;;;;;5013323;28;20174;-71
2022/01/27 02:30:12;;;;;;;9.10;5.93;;;0.60;99.90;;;;;;5013582;28;20244;-72
2022/01/27 02:32:38;;;;;;;14.60;8.57;;;0.60;99.90;;;;;;5028710;28;20818;-74
2022/01/27 02:35:05;;;;;;;4.90;4.50;;;0.60;99.90;;;;;;5013664;28;20170;-74
2022/01/27 02:37:31;;;;;;;10.13;5.65;;;0.60;99.90;;;;;;5013230;28;20173;-72
2022/01/27 02:39:57;;;;;;;7.80;5.20;;;0.50;99.90;;;;;;5028465;28;20321;-72
2022/01/27 02:42:33;;;;;;;20.60;9.00;;;0.50;99.90;;;;;;5013045;28;20429;-71
2022/01/27 02:45:27;;;;;;;10.48;5.75;;;0.50;99.90;;;;;;5013485;28;20174;-72
2022/01/27 02:47:53;;;;;;;6.10;5.55;;;0.60;99.90;;;;;;5012593;28;20273;-72
2022/01/27 02:50:18;;;;;;;9.67;5.17;;;0.60;99.90;;;;;;5013299;28;20366;-71
2022/01/27 02:52:44;;;;;;;8.33;4.87;;;0.60;99.90;;;;;;5013508;28;20186;-72
2022/01/27 02:55:11;;;;;;;6.43;5.10;;;0.60;99.90;;;;;;5013129;28;20537;-71
2022/01/27 02:57:37;;;;;;;12.02;5.25;;;0.50;99.90;;;;;;5012981;28;20933;-73
2022/01/27 03:00:05;;;;;;;8.35;4.28;;;0.50;99.90;;;;;;5013313;28;20191;-70
2022/01/27 03:02:30;;;;;;;11.98;4.55;;;0.50;99.90;;;;;;5013299;28;20246;-72
2022/01/27 03:04:56;;;;;;;10.73;8.27;;;0.50;99.90;;;;;;5015886;28;20245;-71
2022/01/27 03:07:22;;;;;;;11.70;7.43;;;0.50;99.90;;;;;;5017077;28;20659;-71
2022/01/27 03:09:47;;;;;;;6.40;5.00;;;0.50;99.90;;;;;;5016410;28;20193;-73
2022/01/27 03:12:16;;;;;;;14.73;6.20;;;0.50;99.90;;;;;;5016544;28;20174;-73
2022/01/27 03:14:42;;;;;;;16.55;4.68;;;0.50;99.90;;;;;;5016946;28;20175;-72
2022/01/27 03:17:09;;;;;;;9.43;4.95;;;0.50;99.90;;;;;;5016950;28;20171;-71
2022/01/27 03:19:36;;;;;;;3.20;3.05;;;0.50;99.90;;;;;;5016381;28;20218;-73
2022/01/27 03:22:03;;;;;;;12.02;5.72;;;0.50;99.90;;;;;;5016704;28;20163;-74
2022/01/27 03:24:30;;;;;;;12.52;5.80;;;0.50;99.90;;;;;;5031961;28;20175;-73
2022/01/27 03:26:56;;;;;;;10.85;5.82;;;0.50;99.90;;;;;;5016775;28;20174;-73
2022/01/27 03:29:23;;;;;;;10.10;5.30;;;0.50;99.90;;;;;;5016237;28;20299;-73
2022/01/27 03:31:49;;;;;;;8.40;5.20;;;0.60;99.90;;;;;;5016599;28;20175;-71
2022/01/27 03:34:15;;;;;;;5.30;3.97;;;0.60;99.90;;;;;;5016476;28;20205;-71
2022/01/27 03:36:41;;;;;;;14.20;5.40;;;0.60;99.90;;;;;;5016424;28;20225;-71
2022/01/27 03:39:08;;;;;;;11.93;5.18;;;0.60;99.90;;;;;;5015891;28;20197;-72
2022/01/27 03:41:36;;;;;;;8.98;5.13;;;0.60;99.90;;;;;;5016257;28;20188;-73
2022/01/27 03:44:03;;;;;;;19.48;8.88;;;0.60;99.90;;;;;;5016661;28;20174;-72
2022/01/27 03:46:28;;;;;;;7.85;6.70;;;0.70;99.90;;;;;;5016646;28;20216;-73
2022/01/27 03:48:55;;;;;;;8.60;4.80;;;0.70;99.90;;;;;;5015932;28;20191;-73
2022/01/27 03:51:21;;;;;;;8.85;4.68;;;0.60;99.90;;;;;;5016176;28;20209;-73
2022/01/27 03:53:48;;;;;;;7.65;4.85;;;0.70;99.90;;;;;;5014891;28;20226;-71
2022/01/27 03:56:13;;;;;;;11.47;6.47;;;0.70;99.90;;;;;;5016160;28;20213;-72
2022/01/27 03:58:39;;;;;;;6.33;5.70;;;0.60;99.90;;;;;;5015547;28;20170;-72
2022/01/27 04:01:05;;;;;;;9.30;6.50;;;0.60;99.90;;;;;;5016127;28;20214;-72
2022/01/27 04:03:35;;;;;;;7.00;4.23;;;0.60;99.90;;;;;;5015974;28;20217;-71
2022/01/27 04:06:08;;;;;;;8.90;5.25;;;0.60;99.90;;;;;;5015985;28;20408;-72
2022/01/27 04:08:37;;;;;;;10.88;9.88;;;0.60;99.90;;;;;;5015513;28;20171;-72
2022/01/27 04:11:05;;;;;;;13.60;6.40;;;0.60;99.90;;;;;;5015482;28;20178;-71
2022/01/27 04:13:30;;;;;;;12.40;6.32;;;0.60;99.90;;;;;;5015688;28;20206;-72
2022/01/27 04:15:56;;;;;;;6.53;5.93;;;0.60;99.90;;;;;;5014089;28;20495;-72
2022/01/27 04:18:22;;;;;;;13.95;6.90;;;0.60;99.90;;;;;;5015210;28;20405;-72
2022/01/27 04:20:48;;;;;;;11.73;5.47;;;0.60;99.90;;;;;;5015684;28;20193;-72
2022/01/27 04:23:14;;;;;;;7.18;5.95;;;0.50;99.90;;;;;;5014172;28;20257;-72
2022/01/27 04:25:40;;;;;;;7.80;5.77;;;0.50;99.90;;;;;;5015659;28;20645;-71
2022/01/27 04:28:10;;;;;;;9.30;4.57;;;0.60;99.90;;;;;;5015170;28;20181;-71
2022/01/27 04:30:36;;;;;;;8.10;3.78;;;0.60;99.90;;;;;;5015351;28;20439;-72
2022/01/27 04:33:04;;;;;;;12.05;4.63;;;0.60;99.90;;;;;;5014116;28;20303;-71
2022/01/27 04:35:34;;;;;;;7.63;5.63;;;0.60;99.90;;;;;;5015616;28;20159;-72
2022/01/27 04:40:49;;;;;;;6.88;3.97;;;0.60;99.90;;;;;;5014883;28;20226;-71
2022/01/27 04:46:05;;;;;;;18.27;7.38;;;0.60;99.90;;;;;;5015417;28;20175;-71
2022/01/27 04:48:35;;;;;;;11.13;4.25;;;0.60;99.90;;;;;;5014949;28;20255;-71
2022/01/27 04:51:06;;;;;;;5.80;5.20;;;0.50;99.90;;;;;;5015105;28;20190;-71
2022/01/27 04:53:49;;;;;;;10.43;7.10;;;0.50;99.90;;;;;;5015212;28;20194;-71
2022/01/27 04:56:16;;;;;;;7.43;6.57;;;0.50;99.90;;;;;;5013954;28;20171;-72
2022/01/27 04:58:45;;;;;;;6.82;4.78;;;0.50;99.90;;;;;;5014480;28;20197;-72
2022/01/27 05:01:12;;;;;;;9.90;5.88;;;0.50;99.90;;;;;;5014798;28;20163;-72
2022/01/27 05:06:03;;;;;;;15.17;6.33;;;0.50;99.90;;;;;;5014891;28;20515;-71
2022/01/27 05:08:29;;;;;;;8.60;3.47;;;0.50;99.90;;;;;;5014239;28;20173;-71
2022/01/27 05:13:29;;;;;;;7.85;4.57;;;0.50;99.90;;;;;;5014638;28;20194;-72
2022/01/27 05:15:55;;;;;;;6.65;4.97;;;0.40;99.90;;;;;;5014906;28;20166;-71
2022/01/27 05:18:22;;;;;;;13.50;5.20;;;0.50;99.90;;;;;;5014213;28;20490;-72
2022/01/27 05:20:48;;;;;;;6.95;5.80;;;0.50;99.90;;;;;;5014820;28;20448;-72
2022/01/27 05:23:14;;;;;;;10.43;6.73;;;0.40;99.90;;;;;;5014306;28;20642;-71
2022/01/27 05:25:40;;;;;;;8.68;4.70;;;0.40;99.90;;;;;;5014220;28;20410;-71
2022/01/27 05:28:06;;;;;;;10.20;5.10;;;0.40;99.90;;;;;;5013656;28;20339;-71
2022/01/27 05:30:33;;;;;;;8.85;6.78;;;0.40;99.90;;;;;;5014467;28;20205;-70
2022/01/27 05:32:59;;;;;;;12.15;6.05;;;0.50;99.90;;;;;;5014281;28;20209;-72
2022/01/27 05:35:24;;;;;;;18.03;6.27;;;0.50;99.90;;;;;;5014298;28;20167;-71
2022/01/27 05:37:50;;;;;;;7.67;4.73;;;0.50;99.90;;;;;;5014041;28;20163;-71
2022/01/27 05:40:16;;;;;;;4.83;3.47;;;0.50;99.90;;;;;;5013909;28;20252;-72
2022/01/27 05:42:42;;;;;;;8.20;6.10;;;0.50;99.90;;;;;;5014270;28;20182;-72
2022/01/27 05:45:08;;;;;;;11.67;7.23;;;0.50;99.90;;;;;;5014355;28;20177;-71
2022/01/27 05:47:34;;;;;;;8.77;5.70;;;0.50;99.90;;;;;;5013855;28;20441;-71
2022/01/27 05:49:59;;;;;;;6.57;5.73;;;0.50;99.90;;;;;;5013879;28;20198;-71
2022/01/27 05:52:25;;;;;;;5.47;3.73;;;0.50;99.90;;;;;;5013763;28;20558;-70
2022/01/27 05:54:50;;;;;;;11.93;6.00;;;0.50;99.90;;;;;;5013995;28;20186;-72
2022/01/27 05:57:16;;;;;;;8.33;4.47;;;0.50;99.90;;;;;;5014404;28;20582;-71
2022/01/27 05:59:41;;;;;;;10.03;8.30;;;0.50;99.90;;;;;;5013585;28;20277;-72
2022/01/27 06:02:07;;;;;;;14.43;7.93;;;0.60;99.90;;;;;;5014115;28;20175;-71
2022/01/27 06:04:33;;;;;;;11.10;6.47;;;0.60;99.90;;;;;;5014054;28;20663;-72
2022/01/27 06:06:58;;;;;;;10.97;6.10;;;0.60;99.90;;;;;;5012663;28;20183;-71
2022/01/27 06:09:25;;;;;;;6.07;5.60;;;0.60;99.90;;;;;;5013100;28;20202;-72
2022/01/27 06:11:50;;;;;;;13.38;6.72;;;0.60;99.90;;;;;;5012527;28;20531;-71
2022/01/27 06:14:17;;;;;;;15.13;8.07;;;0.60;99.90;;;;;;5014035;28;20204;-72
2022/01/27 06:16:44;;;;;;;10.30;4.70;;;0.60;99.90;;;;;;5013653;28;20170;-72
2022/01/27 06:19:10;;;;;;;6.60;4.70;;;0.60;99.90;;;;;;5013134;28;20603;-72
2022/01/27 06:21:36;;;;;;;4.90;4.43;;;0.60;99.90;;;;;;5013563;28;20202;-72
2022/01/27 06:24:02;;;;;;;11.60;6.70;;;0.60;99.90;;;;;;5013667;28;20198;-70
2022/01/27 06:26:29;;;;;;;8.23;5.28;;;0.60;99.90;;;;;;5013487;28;20655;-72
2022/01/27 06:28:55;;;;;;;12.27;5.55;;;0.60;99.90;;;;;;5013062;28;20255;-71
2022/01/27 06:31:21;;;;;;;7.32;5.60;;;0.60;99.90;;;;;;5028691;28;20225;-71
2022/01/27 06:33:47;;;;;;;11.33;6.43;;;0.60;99.90;;;;;;5013224;28;20700;-71
2022/01/27 06:36:12;;;;;;;8.77;6.80;;;0.70;99.90;;;;;;5013419;28;20174;-70
2022/01/27 06:38:38;;;;;;;6.40;4.97;;;0.70;99.90;;;;;;5015284;28;20175;-71
2022/01/27 06:41:04;;;;;;;11.63;5.50;;;0.70;99.90;;;;;;5017401;28;20241;-70
2022/01/27 06:43:29;;;;;;;9.50;5.40;;;0.70;99.90;;;;;;5017533;28;20224;-71
2022/01/27 06:45:55;;;;;;;8.90;6.37;;;0.70;99.90;;;;;;5017670;28;20171;-69
2022/01/27 06:48:21;;;;;;;14.40;6.20;;;0.70;99.90;;;;;;5016928;28;20716;-70
2022/01/27 06:50:52;;;;;;;10.40;6.17;;;0.70;99.90;;;;;;5016892;28;20206;-72
2022/01/27 06:53:18;;;;;;;12.50;6.50;;;0.70;99.90;;;;;;5016945;28;20233;-70
2022/01/27 06:55:44;;;;;;;7.63;6.00;;;0.70;99.90;;;;;;5015713;28;20202;-70
2022/01/27 06:58:09;;;;;;;9.27;6.27;;;0.70;99.90;;;;;;5016836;28;20221;-71
2022/01/27 07:00:35;;;;;;;6.97;6.10;;;0.70;99.90;;;;;;5017199;28;20548;-70
2022/01/27 07:03:00;;;;;;;12.97;7.60;;;0.70;99.90;;;;;;5017029;28;20175;-70
2022/01/27 07:05:26;;;;;;;14.97;5.80;;;0.60;99.90;;;;;;5017143;28;20167;-70
2022/01/27 07:07:52;;;;;;;9.23;5.70;;;0.60;99.90;;;;;;5016408;28;20703;-71
2022/01/27 07:10:17;;;;;;;10.07;5.03;;;0.60;99.90;;;;;;5016483;28;20275;-71
2022/01/27 07:12:43;;;;;;;11.23;4.83;;;0.60;99.90;;;;;;5016767;28;20233;-69
2022/01/27 07:15:09;;;;;;;19.33;7.57;;;0.60;99.90;;;;;;5016967;28;20170;-71
2022/01/27 07:17:35;;;;;;;23.88;6.43;;;0.60;99.90;;;;;;5012936;28;20261;-73
2022/01/27 07:20:01;;;;;;;14.93;9.50;;;0.50;99.90;;;;;;5030349;28;20287;-71
2022/01/27 07:22:26;;;;;;;11.20;7.40;;;0.50;99.90;;;;;;5014680;28;20816;-70
2022/01/27 07:24:52;;;;;;;7.30;5.23;;;0.50;99.90;;;;;;5016698;28;20179;-70
2022/01/27 07:27:18;;;;;;;18.70;7.77;;;0.40;99.90;;;;;;5015475;28;20250;-71
2022/01/27 07:29:45;;;;;;;17.87;6.10;;;0.40;99.90;;;;;;5030821;28;20191;-70
2022/01/27 07:32:10;;;;;;;8.95;7.25;;;0.40;99.90;;;;;;5016078;28;20658;-71
2022/01/27 07:34:36;;;;;;;14.23;7.80;;;0.40;99.90;;;;;;5015672;28;20198;-71
2022/01/27 07:37:03;;;;;;;9.27;7.80;;;0.40;99.90;;;;;;5016354;28;20167;-70
2022/01/27 07:39:34;;;;;;;18.42;5.72;;;0.40;99.90;;;;;;5005004;28;20563;-76
2022/01/27 07:42:01;;;;;;;22.45;7.70;;;0.40;99.90;;;;;;4998329;28;20182;-70
2022/01/27 07:44:30;;;;;;;17.85;7.63;;;0.40;99.90;;;;;;5018799;28;20224;-73
2022/01/27 07:46:56;;;;;;;12.40;10.85;;;0.40;99.90;;;;;;5018399;28;20213;-73
2022/01/27 07:49:21;;;;;;;12.77;8.53;;;0.40;99.90;;;;;;5015808;28;20194;-70
2022/01/27 07:51:47;;;;;;;8.20;5.33;;;0.40;99.90;;;;;;5015566;28;20505;-70
2022/01/27 07:54:13;;;;;;;6.23;3.73;;;0.30;99.90;;;;;;5015846;28;20757;-72
2022/01/27 07:56:38;;;;;;;8.23;6.73;;;0.30;99.90;;;;;;5015435;28;20257;-73
2022/01/27 07:59:04;;;;;;;14.10;6.73;;;0.30;99.90;;;;;;5016764;28;20202;-71
2022/01/27 08:01:30;;;;;;;16.50;5.53;;;0.30;99.90;;;;;;5032215;28;20189;-71
2022/01/27 08:03:56;;;;;;;11.93;5.17;;;0.30;99.90;;;;;;5016099;28;20480;-71
2022/01/27 08:06:21;;;;;;;11.17;5.47;;;0.30;99.90;;;;;;5019764;28;20206;-71
2022/01/27 08:08:48;;;;;;;12.87;6.47;;;0.30;99.90;;;;;;5015193;28;20458;-70
2022/01/27 08:11:14;;;;;;;7.97;7.03;;;0.30;99.90;;;;;;5019397;28;20269;-71
2022/01/27 08:13:40;;;;;;;14.30;6.00;;;0.20;99.90;;;;;;5016992;28;20630;-71
2022/01/27 08:16:06;;;;;;;13.17;5.27;;;0.20;99.90;;;;;;5017125;28;20197;-71
2022/01/27 08:18:31;;;;;;;13.30;8.52;;;0.10;99.90;;;;;;5014583;28;20866;-71
2022/01/27 08:20:57;;;;;;;30.35;6.63;;;0.10;99.90;;;;;;5014556;28;20183;-71
2022/01/27 08:23:23;;;;;;;9.70;5.27;;;0.10;99.90;;;;;;5015575;28;20163;-70
2022/01/27 08:25:51;;;;;;;12.13;5.93;;;0.20;99.90;;;;;;5013305;28;20174;-70
2022/01/27 08:28:28;;;;;;;9.45;5.32;;;0.20;99.90;;;;;;5014655;28;20185;-72
2022/01/27 08:30:55;;;;;;;5.82;3.92;;;0.20;99.90;;;;;;5014772;28;20184;-69
2022/01/27 08:33:23;;;;;;;11.27;6.90;;;0.20;99.90;;;;;;5014941;28;20202;-72
2022/01/27 08:35:48;;;;;;;11.23;5.18;;;0.20;99.90;;;;;;5015400;28;20159;-70
2022/01/27 08:38:14;;;;;;;8.40;6.23;;;0.20;99.90;;;;;;5013785;28;20257;-69
2022/01/27 08:40:40;;;;;;;14.23;6.37;;;0.20;99.90;;;;;;5014848;28;20194;-70
2022/01/27 08:43:08;;;;;;;12.50;5.30;;;0.20;99.90;;;;;;5009972;28;20436;-73
2022/01/27 08:45:33;;;;;;;12.05;6.43;;;0.20;99.90;;;;;;5015062;28;20409;-71
2022/01/27 08:48:00;;;;;;;14.30;7.00;;;0.20;99.90;;;;;;5013663;28;20179;-70
2022/01/27 08:50:27;;;;;;;6.80;6.10;;;0.20;99.90;;;;;;5014446;28;20966;-72
2022/01/27 08:52:53;;;;;;;6.88;4.53;;;0.30;99.90;;;;;;5014608;28;20286;-72
2022/01/27 08:55:21;;;;;;;5.30;4.80;;;0.30;99.90;;;;;;5004238;28;20512;-73
2022/01/27 08:57:50;;;;;;;6.60;5.68;;;0.30;99.90;;;;;;5002544;28;20840;-73
2022/01/27 09:00:19;;;;;;;17.15;8.25;;;0.30;99.90;;;;;;5014470;28;20191;-71
2022/01/27 09:02:45;;;;;;;10.13;4.00;;;0.30;99.90;;;;;;5014632;28;20507;-71
2022/01/27 09:05:11;;;;;;;7.72;4.85;;;0.40;99.90;;;;;;5028574;28;20190;-71
2022/01/27 09:07:37;;;;;;;9.27;4.80;;;0.50;99.90;;;;;;5013792;28;20221;-73
2022/01/27 09:10:04;;;;;;;9.23;5.17;;;0.70;99.90;;;;;;5014036;28;20604;-70
2022/01/27 09:12:30;;;;;;;21.00;8.35;;;0.90;99.90;;;;;;5013528;28;20642;-71
2022/01/27 09:14:56;;;;;;;8.93;5.93;;;1.00;99.90;;;;;;5014283;28;20175;-73
2022/01/27 09:17:25;;;;;;;8.07;5.80;;;1.10;99.90;;;;;;5013400;28;20664;-71
2022/01/27 09:19:52;;;;;;;7.78;4.47;;;1.20;99.90;;;;;;5013913;28;20213;-71
2022/01/27 09:22:19;;;;;;;9.05;5.45;;;1.30;99.90;;;;;;5013575;28;20179;-72
2022/01/27 09:24:58;;;;;;;7.82;6.13;;;1.40;99.90;;;;;;5014133;28;20257;-70
2022/01/27 09:27:25;;;;;;;13.50;6.10;;;1.50;99.90;;;;;;5013671;28;20181;-73
2022/01/27 09:29:51;;;;;;;14.00;9.00;;;1.60;99.90;;;;;;5013259;28;20766;-74
2022/01/27 09:32:18;;;;;;;17.90;7.35;;;1.60;99.90;;;;;;5014039;28;20178;-73
2022/01/27 09:34:44;;;;;;;9.30;3.75;;;1.70;99.90;;;;;;5013241;28;20198;-72
2022/01/27 09:37:10;;;;;;;14.40;5.60;;;1.70;99.90;;;;;;5012160;28;20171;-74
2022/01/27 09:39:37;;;;;;;7.97;5.95;;;1.80;99.90;;;;;;5012753;28;20190;-73
2022/01/27 09:42:05;;;;;;;9.82;5.88;;;1.90;99.90;;;;;;5013531;28;20233;-72
2022/01/27 09:44:32;;;;;;;12.50;6.50;;;1.90;99.90;;;;;;5013632;28;20434;-72
2022/01/27 09:47:14;;;;;;;13.32;7.53;;;1.90;99.90;;;;;;5009361;28;20237;-73
2022/01/27 09:49:52;;;;;;;10.85;6.45;;;1.90;99.90;;;;;;5013190;28;20194;-74
2022/01/27 09:52:18;;;;;;;11.98;5.95;;;1.90;99.90;;;;;;5012502;28;20187;-73
2022/01/27 09:54:46;;;;;;;9.50;4.63;;;1.90;99.90;;;;;;5028564;28;20554;-74
2022/01/27 09:57:17;;;;;;;7.15;6.18;;;1.90;99.90;;;;;;5027879;28;20229;-73
2022/01/27 09:59:43;;;;;;;6.80;4.85;;;2.00;99.90;;;;;;5013093;28;20277;-73
2022/01/27 10:02:15;;;;;;;11.35;7.60;;;2.00;99.90;;;;;;5013351;28;20187;-73
2022/01/27 10:04:46;;;;;;;4.65;4.25;;;2.10;99.90;;;;;;5012578;28;20174;-71
2022/01/27 10:07:14;;;;;;;13.82;6.20;;;2.10;99.90;;;;;;5008589;28;20194;-72
2022/01/27 10:10:14;;;;;;;9.18;5.15;;;2.20;99.90;;;;;;5011531;28;20290;-72
2022/01/27 10:12:49;;;;;;;12.27;5.80;;;2.30;99.90;;;;;;4994064;28;20186;-72
2022/01/27 10:15:19;;;;;;;10.07;5.85;;;2.40;99.90;;;;;;5013225;28;20252;-73
2022/01/27 10:18:14;;;;;;;7.13;5.25;;;2.50;99.90;;;;;;5005390;28;20511;-72
2022/01/27 10:20:44;;;;;;;9.38;5.15;;;2.60;99.90;;;;;;5001606;28;20187;-72
2022/01/27 10:23:22;;;;;;;6.50;5.80;;;2.70;99.90;;;;;;5013025;28;20186;-72
2022/01/27 10:25:56;;;;;;;12.50;4.97;;;2.70;99.90;;;;;;5011033;28;20170;-73
2022/01/27 10:28:29;;;;;;;6.68;5.43;;;2.80;99.90;;;;;;5013020;28;20177;-72
2022/01/27 10:31:09;;;;;;;8.52;5.15;;;2.90;99.90;;;;;;5012759;28;20181;-73
2022/01/27 10:33:42;;;;;;;5.50;4.00;;;3.00;99.90;;;;;;5011755;28;20213;-70
2022/01/27 10:36:15;;;;;;;9.07;4.72;;;3.10;99.90;;;;;;5012460;28;20175;-72
2022/01/27 10:38:41;;;;;;;8.25;4.07;;;3.20;99.90;;;;;;5010353;28;20203;-72
2022/01/27 10:41:07;;;;;;;10.70;4.30;;;3.30;99.90;;;;;;5012075;28;20256;-71
2022/01/27 10:43:34;;;;;;;7.38;4.88;;;3.40;99.90;;;;;;5010909;28;20182;-73
2022/01/27 10:46:16;;;;;;;8.57;4.47;;;3.40;99.90;;;;;;5011815;28;20174;-72
2022/01/27 10:48:48;;;;;;;4.47;2.83;;;3.40;99.90;;;;;;5011469;28;20534;-73
2022/01/27 10:51:20;;;;;;;12.98;4.45;;;3.60;99.90;;;;;;5012385;28;20193;-73
2022/01/27 10:54:04;;;;;;;6.57;4.95;;;3.60;99.90;;;;;;5012558;28;20634;-74
2022/01/27 10:56:36;;;;;;;10.60;4.47;;;3.60;99.90;;;;;;5012258;28;20182;-73
2022/01/27 10:59:06;;;;;;;6.30;3.95;;;3.60;99.90;;;;;;5012365;28;20198;-74
2022/01/27 11:01:43;;;;;;;4.80;4.03;;;3.60;99.90;;;;;;5012392;28;20250;-74
2022/01/27 11:04:12;;;;;;;4.60;4.20;;;3.60;99.90;;;;;;5027510;28;20190;-75
2022/01/27 11:06:58;;;;;;;9.35;5.57;;;3.60;99.90;;;;;;5010788;28;20206;-73
2022/01/27 11:09:25;;;;;;;7.13;3.10;;;3.60;99.90;;;;;;5012659;28;20209;-73
2022/01/27 11:11:52;;;;;;;8.40;5.10;;;3.50;99.90;;;;;;5008802;28;20654;-73
2022/01/27 11:14:19;;;;;;;8.95;4.60;;;3.50;99.90;;;;;;5013138;28;20670;-73
2022/01/27 11:16:49;;;;;;;15.70;4.53;;;3.50;99.90;;;;;;5013054;28;20164;-73
2022/01/27 11:19:36;;;;;;;7.72;3.72;;;3.60;99.90;;;;;;5012597;28;20219;-75
2022/01/27 11:24:54;;;;;;;6.43;3.75;;;3.60;99.90;;;;;;5013687;28;20262;-77
2022/01/27 11:27:20;;;;;;;5.15;3.78;;;3.60;99.90;;;;;;5016695;28;20258;-73
2022/01/27 11:29:56;;;;;;;4.43;4.03;;;3.70;99.90;;;;;;5016036;28;20229;-70
2022/01/27 11:32:37;;;;;;;5.63;4.35;;;3.70;99.90;;;;;;4997357;28;20261;-70
2022/01/27 11:35:22;;;;;;;7.97;4.65;;;3.70;99.90;;;;;;5016359;28;20225;-69
2022/01/27 11:37:52;;;;;;;6.55;4.03;;;3.80;99.90;;;;;;5015881;28;20175;-70
2022/01/27 11:40:20;;;;;;;4.53;4.03;;;3.80;99.90;;;;;;5015811;28;20712;-74
2022/01/27 11:42:55;;;;;;;4.95;3.50;;;3.80;99.90;;;;;;5016178;28;20183;-71
2022/01/27 11:45:20;;;;;;;6.90;4.75;;;3.80;99.90;;;;;;5016314;28;20179;-69
2022/01/27 11:48:06;;;;;;;9.37;5.40;;;3.90;99.90;;;;;;5015662;28;20186;-71
2022/01/27 11:50:51;;;;;;;5.78;5.13;;;3.80;99.90;;;;;;5015775;28;20239;-74
2022/01/27 11:53:32;;;;;;;6.25;3.88;;;3.90;99.90;;;;;;5014875;28;20194;-72
2022/01/27 11:56:15;;;;;;;7.15;6.40;;;3.90;99.90;;;;;;5000986;28;20172;-73
2022/01/27 11:58:47;;;;;;;7.40;4.13;;;3.90;99.90;;;;;;4995961;28;20194;-74
2022/01/27 12:01:18;;;;;;;7.25;6.10;;;4.00;99.90;;;;;;4996079;28;20222;-72
2022/01/27 12:04:04;;;;;;;7.00;4.30;;;4.00;99.90;;;;;;5008206;28;20174;-75
2022/01/27 12:06:49;;;;;;;12.73;5.70;;;4.10;99.90;;;;;;5016041;28;20238;-73
2022/01/27 12:09:18;;;;;;;6.75;4.10;;;4.10;99.90;;;;;;5015208;28;20195;-76
2022/01/27 12:12:07;;;;;;;6.03;3.80;;;4.10;99.90;;;;;;5017969;28;20657;-74
2022/01/27 12:14:35;;;;;;;6.72;3.70;;;4.20;99.90;;;;;;5015696;28;20708;-76
2022/01/27 12:17:07;;;;;;;8.30;5.28;;;4.20;99.90;;;;;;5016527;28;20572;-76
2022/01/27 12:19:53;;;;;;;9.48;6.25;;;4.30;99.90;;;;;;5015541;28;20188;-74
2022/01/27 12:22:22;;;;;;;9.40;3.90;;;4.30;99.90;;;;;;5015572;28;20163;-75
2022/01/27 12:24:55;;;;;;;8.77;3.05;;;4.30;99.90;;;;;;4998453;28;20511;-75
2022/01/27 12:27:22;;;;;;;10.55;4.85;;;4.40;99.90;;;;;;4994362;28;20183;-75
2022/01/27 12:29:50;;;;;;;6.25;4.10;;;4.40;99.90;;;;;;5012202;28;20231;-75
2022/01/27 12:32:16;;;;;;;7.82;4.38;;;4.40;99.90;;;;;;5014344;28;20565;-72
2022/01/27 12:34:47;;;;;;;9.17;5.27;;;4.40;99.90;;;;;;5015011;28;20202;-72
2022/01/27 12:37:14;;;;;;;12.73;5.93;;;4.40;99.90;;;;;;5014941;28;20529;-74
2022/01/27 12:39:49;;;;;;;6.82;4.93;;;4.50;99.90;;;;;;5014635;28;20227;-73
2022/01/27 12:42:16;;;;;;;7.45;5.47;;;4.50;99.90;;;;;;5015043;28;20170;-75
2022/01/27 12:44:59;;;;;;;9.07;6.22;;;4.50;99.90;;;;;;5015119;28;20194;-76
2022/01/27 12:47:26;;;;;;;9.02;4.55;;;4.50;99.90;;;;;;5015167;28;20246;-76
2022/01/27 12:50:05;;;;;;;14.95;5.25;;;4.50;99.90;;;;;;5014714;28;20196;-72
2022/01/27 12:52:36;;;;;;;6.47;4.82;;;4.50;99.90;;;;;;5014616;28;20178;-73
2022/01/27 12:55:04;;;;;;;7.82;4.07;;;4.50;99.90;;;;;;5007089;28;20191;-72
2022/01/27 12:57:32;;;;;;;5.80;4.05;;;4.60;99.90;;;;;;5010054;28;20174;-73
2022/01/27 12:59:58;;;;;;;5.05;3.75;;;4.60;99.90;;;;;;5014644;28;20188;-73
2022/01/27 13:02:26;;;;;;;7.38;4.63;;;4.60;99.90;;;;;;5029915;28;20174;-74
2022/01/27 13:04:57;;;;;;;5.53;4.03;;;4.60;99.90;;;;;;5015173;28;20168;-73
2022/01/27 13:07:25;;;;;;;4.80;4.32;;;4.60;99.90;;;;;;5014436;28;20195;-73
2022/01/27 13:09:59;;;;;;;8.07;4.30;;;4.70;99.90;;;;;;5013801;28;20202;-72
2022/01/27 13:12:32;;;;;;;6.10;5.50;;;4.70;99.90;;;;;;5014251;28;20270;-74
2022/01/27 13:15:05;;;;;;;5.47;3.15;;;4.70;99.90;;;;;;5014279;28;20280;-73
2022/01/27 13:17:37;;;;;;;6.53;5.60;;;4.70;99.90;;;;;;5014782;28;20167;-73
2022/01/27 13:20:14;;;;;;;5.72;3.75;;;4.70;99.90;;;;;;5014294;28;20198;-72
2022/01/27 13:22:45;;;;;;;7.93;6.63;;;4.70;99.90;;;;;;5014428;28;20257;-69
2022/01/27 13:25:10;;;;;;;5.53;4.60;;;4.70;99.90;;;;;;5013756;28;20526;-74
2022/01/27 13:27:36;;;;;;;5.60;4.30;;;4.80;99.90;;;;;;5013822;28;20171;-74
2022/01/27 13:30:02;;;;;;;5.30;3.90;;;4.70;99.90;;;;;;5013863;28;20194;-74
2022/01/27 13:32:28;;;;;;;7.77;5.17;;;4.80;99.90;;;;;;5014002;28;20236;-74
2022/01/27 13:34:53;;;;;;;6.67;4.07;;;4.80;99.90;;;;;;5013912;28;20465;-72
2022/01/27 13:37:31;;;;;;;6.50;3.97;;;4.80;99.90;;;;;;5013986;28;20509;-72
2022/01/27 13:42:24;;;;;;;5.18;4.50;;;5.00;99.90;;;;;;5007432;28;20172;-74
2022/01/27 13:44:55;;;;;;;9.02;5.50;;;5.00;99.90;;;;;;4994371;28;20176;-75
2022/01/27 13:47:39;;;;;;;7.53;4.97;;;5.00;99.90;;;;;;4993551;28;20185;-74
2022/01/27 13:50:13;;;;;;;16.08;4.75;;;5.00;99.90;;;;;;4993874;28;20753;-73
2022/01/27 13:52:49;;;;;;;8.20;5.05;;;5.00;99.90;;;;;;4992744;28;20186;-73
2022/01/27 13:55:23;;;;;;;5.57;4.15;;;5.00;99.90;;;;;;5003404;28;20217;-73
2022/01/27 13:58:02;;;;;;;8.35;4.10;;;5.00;99.90;;;;;;5012833;28;20178;-73
2022/01/27 14:00:36;;;;;;;5.70;3.90;;;5.10;99.90;;;;;;5012349;28;20655;-74